sensor_id;sensor_type;location;lat;lon;timestamp;P1;durP1;ratioP1;P2;durP2;ratioP2
22646;SDS011;11490;42.726;23.268;2023-04-29T00:00:17;11.95;;;6.50;;
22646;SDS011;11490;42.726;23.268;2023-04-29T00:02:42;13.00;;;6.45;;
22646;SDS011;11490;42.726;23.268;2023-04-29T00:05:08;11.45;;;6.22;;
22646;SDS011;11490;42.726;23.268;2023-04-29T00:07:33;7.15;;;5.47;;
22646;SDS011;11490;42.726;23.268;2023-04-29T00:10:00;10.35;;;5.78;;
22646;SDS011;11490;42.726;23.268;2023-04-29T00:12:26;10.65;;;6.28;;
22646;SDS011;11490;42.726;23.268;2023-04-29T00:14:52;9.98;;;6.80;;
22646;SDS011;11490;42.726;23.268;2023-04-29T00:17:17;11.20;;;5.57;;
22646;SDS011;11490;42.726;23.268;2023-04-29T00:19:43;8.65;;;5.57;;
22646;SDS011;11490;42.726;23.268;2023-04-29T00:22:09;11.55;;;6.50;;
22646;SDS011;11490;42.726;23.268;2023-04-29T00:24:34;8.32;;;5.55;;
22646;SDS011;11490;42.726;23.268;2023-04-29T00:27:00;8.70;;;5.75;;
22646;SDS011;11490;42.726;23.268;2023-04-29T00:29:26;8.40;;;5.93;;
22646;SDS011;11490;42.726;23.268;2023-04-29T00:31:52;10.70;;;5.85;;
22646;SDS011;11490;42.726;23.268;2023-04-29T00:34:17;7.72;;;6.70;;
22646;SDS011;11490;42.726;23.268;2023-04-29T00:36:43;6.75;;;5.47;;
22646;SDS011;11490;42.726;23.268;2023-04-29T00:39:08;9.45;;;5.45;;
22646;SDS011;11490;42.726;23.268;2023-04-29T00:41:33;9.73;;;5.20;;
22646;SDS011;11490;42.726;23.268;2023-04-29T00:43:59;8.98;;;6.35;;
22646;SDS011;11490;42.726;23.268;2023-04-29T00:46:25;7.10;;;5.38;;
22646;SDS011;11490;42.726;23.268;2023-04-29T00:48:51;12.13;;;6.35;;
22646;SDS011;11490;42.726;23.268;2023-04-29T00:51:16;6.55;;;5.43;;
22646;SDS011;11490;42.726;23.268;2023-04-29T00:53:42;8.02;;;5.80;;
22646;SDS011;11490;42.726;23.268;2023-04-29T00:56:08;7.28;;;5.60;;
22646;SDS011;11490;42.726;23.268;2023-04-29T00:58:34;11.38;;;6.47;;
22646;SDS011;11490;42.726;23.268;2023-04-29T01:01:00;8.73;;;5.68;;
22646;SDS011;11490;42.726;23.268;2023-04-29T01:03:28;9.10;;;5.10;;
22646;SDS011;11490;42.726;23.268;2023-04-29T01:11:09;7.22;;;5.97;;
22646;SDS011;11490;42.726;23.268;2023-04-29T01:13:41;9.48;;;5.53;;
22646;SDS011;11490;42.726;23.268;2023-04-29T01:19:01;8.77;;;5.07;;
22646;SDS011;11490;42.726;23.268;2023-04-29T01:21:46;7.15;;;5.80;;
22646;SDS011;11490;42.726;23.268;2023-04-29T01:24:13;6.25;;;5.03;;
22646;SDS011;11490;42.726;23.268;2023-04-29T01:26:40;6.25;;;5.47;;
22646;SDS011;11490;42.726;23.268;2023-04-29T01:32:12;7.78;;;5.43;;
22646;SDS011;11490;42.726;23.268;2023-04-29T01:34:46;6.32;;;4.80;;
22646;SDS011;11490;42.726;23.268;2023-04-29T01:37:21;7.35;;;4.93;;
22646;SDS011;11490;42.726;23.268;2023-04-29T01:40:15;7.00;;;5.00;;
22646;SDS011;11490;42.726;23.268;2023-04-29T01:43:00;8.60;;;6.15;;
22646;SDS011;11490;42.726;23.268;2023-04-29T01:45:28;9.45;;;4.85;;
22646;SDS011;11490;42.726;23.268;2023-04-29T01:47:56;5.88;;;4.57;;
22646;SDS011;11490;42.726;23.268;2023-04-29T01:50:23;7.80;;;4.97;;
22646;SDS011;11490;42.726;23.268;2023-04-29T01:52:48;10.50;;;5.15;;
22646;SDS011;11490;42.726;23.268;2023-04-29T01:55:14;9.20;;;5.70;;
22646;SDS011;11490;42.726;23.268;2023-04-29T01:57:39;8.15;;;6.07;;
22646;SDS011;11490;42.726;23.268;2023-04-29T02:00:05;8.05;;;5.18;;
22646;SDS011;11490;42.726;23.268;2023-04-29T02:02:31;6.85;;;4.95;;
22646;SDS011;11490;42.726;23.268;2023-04-29T02:04:56;5.80;;;4.72;;
22646;SDS011;11490;42.726;23.268;2023-04-29T02:07:21;8.57;;;5.35;;
22646;SDS011;11490;42.726;23.268;2023-04-29T02:09:47;6.15;;;4.95;;
22646;SDS011;11490;42.726;23.268;2023-04-29T02:12:12;10.40;;;6.20;;
22646;SDS011;11490;42.726;23.268;2023-04-29T02:14:38;7.28;;;4.97;;
22646;SDS011;11490;42.726;23.268;2023-04-29T02:17:03;5.70;;;4.68;;
22646;SDS011;11490;42.726;23.268;2023-04-29T02:19:29;5.40;;;4.53;;
22646;SDS011;11490;42.726;23.268;2023-04-29T02:21:54;6.80;;;5.53;;
22646;SDS011;11490;42.726;23.268;2023-04-29T02:24:19;8.00;;;5.15;;
22646;SDS011;11490;42.726;23.268;2023-04-29T02:26:45;7.85;;;5.78;;
22646;SDS011;11490;42.726;23.268;2023-04-29T02:29:10;10.30;;;5.75;;
22646;SDS011;11490;42.726;23.268;2023-04-29T02:31:36;14.75;;;6.70;;
22646;SDS011;11490;42.726;23.268;2023-04-29T02:34:02;8.05;;;5.97;;
22646;SDS011;11490;42.726;23.268;2023-04-29T02:36:28;12.55;;;6.78;;
22646;SDS011;11490;42.726;23.268;2023-04-29T02:38:53;9.95;;;5.65;;
22646;SDS011;11490;42.726;23.268;2023-04-29T02:41:20;9.20;;;6.70;;
22646;SDS011;11490;42.726;23.268;2023-04-29T02:43:46;13.70;;;5.97;;
22646;SDS011;11490;42.726;23.268;2023-04-29T02:46:13;7.97;;;6.32;;
22646;SDS011;11490;42.726;23.268;2023-04-29T02:48:38;9.35;;;5.90;;
22646;SDS011;11490;42.726;23.268;2023-04-29T02:51:04;15.57;;;6.10;;
22646;SDS011;11490;42.726;23.268;2023-04-29T02:53:29;9.25;;;5.63;;
22646;SDS011;11490;42.726;23.268;2023-04-29T02:55:55;5.88;;;5.28;;
22646;SDS011;11490;42.726;23.268;2023-04-29T02:58:21;5.53;;;4.57;;
22646;SDS011;11490;42.726;23.268;2023-04-29T03:00:46;6.07;;;4.57;;
22646;SDS011;11490;42.726;23.268;2023-04-29T03:03:12;14.02;;;5.45;;
22646;SDS011;11490;42.726;23.268;2023-04-29T03:05:37;6.38;;;5.70;;
22646;SDS011;11490;42.726;23.268;2023-04-29T03:08:02;8.07;;;5.25;;
22646;SDS011;11490;42.726;23.268;2023-04-29T03:10:28;6.30;;;4.82;;
22646;SDS011;11490;42.726;23.268;2023-04-29T03:12:54;7.35;;;5.03;;
22646;SDS011;11490;42.726;23.268;2023-04-29T03:15:19;8.55;;;4.97;;
22646;SDS011;11490;42.726;23.268;2023-04-29T03:17:45;6.70;;;5.20;;
22646;SDS011;11490;42.726;23.268;2023-04-29T03:20:10;7.80;;;4.63;;
22646;SDS011;11490;42.726;23.268;2023-04-29T03:22:36;8.18;;;5.78;;
22646;SDS011;11490;42.726;23.268;2023-04-29T03:25:01;8.95;;;5.38;;
22646;SDS011;11490;42.726;23.268;2023-04-29T03:27:27;5.82;;;4.95;;
22646;SDS011;11490;42.726;23.268;2023-04-29T03:29:53;7.70;;;5.82;;
22646;SDS011;11490;42.726;23.268;2023-04-29T03:32:18;11.07;;;7.40;;
22646;SDS011;11490;42.726;23.268;2023-04-29T03:34:43;8.50;;;5.93;;
22646;SDS011;11490;42.726;23.268;2023-04-29T03:37:09;10.50;;;4.57;;
22646;SDS011;11490;42.726;23.268;2023-04-29T03:39:34;6.20;;;5.63;;
22646;SDS011;11490;42.726;23.268;2023-04-29T03:42:00;12.13;;;4.95;;
22646;SDS011;11490;42.726;23.268;2023-04-29T03:44:25;8.00;;;6.40;;
22646;SDS011;11490;42.726;23.268;2023-04-29T03:46:51;5.32;;;4.80;;
22646;SDS011;11490;42.726;23.268;2023-04-29T03:49:16;6.85;;;5.95;;
22646;SDS011;11490;42.726;23.268;2023-04-29T03:51:42;6.22;;;5.63;;
22646;SDS011;11490;42.726;23.268;2023-04-29T03:54:09;10.05;;;5.68;;
22646;SDS011;11490;42.726;23.268;2023-04-29T03:56:35;9.25;;;5.68;;
22646;SDS011;11490;42.726;23.268;2023-04-29T03:59:01;9.35;;;5.63;;
22646;SDS011;11490;42.726;23.268;2023-04-29T04:01:26;6.20;;;4.88;;
22646;SDS011;11490;42.726;23.268;2023-04-29T04:03:51;8.05;;;5.10;;
22646;SDS011;11490;42.726;23.268;2023-04-29T04:06:17;7.35;;;5.85;;
22646;SDS011;11490;42.726;23.268;2023-04-29T04:08:42;7.55;;;5.40;;
22646;SDS011;11490;42.726;23.268;2023-04-29T04:11:08;13.38;;;5.50;;
22646;SDS011;11490;42.726;23.268;2023-04-29T04:13:34;7.07;;;5.35;;
22646;SDS011;11490;42.726;23.268;2023-04-29T04:16:00;7.10;;;5.38;;
22646;SDS011;11490;42.726;23.268;2023-04-29T04:18:25;6.93;;;5.75;;
22646;SDS011;11490;42.726;23.268;2023-04-29T04:20:50;10.75;;;5.30;;
22646;SDS011;11490;42.726;23.268;2023-04-29T04:23:16;6.75;;;4.90;;
22646;SDS011;11490;42.726;23.268;2023-04-29T04:25:45;5.82;;;4.93;;
22646;SDS011;11490;42.726;23.268;2023-04-29T04:28:11;6.28;;;4.50;;
22646;SDS011;11490;42.726;23.268;2023-04-29T04:30:36;7.28;;;5.57;;
22646;SDS011;11490;42.726;23.268;2023-04-29T04:33:02;9.63;;;6.68;;
22646;SDS011;11490;42.726;23.268;2023-04-29T04:35:28;10.63;;;6.82;;
22646;SDS011;11490;42.726;23.268;2023-04-29T04:37:53;10.25;;;6.35;;
22646;SDS011;11490;42.726;23.268;2023-04-29T04:40:19;7.88;;;6.18;;
22646;SDS011;11490;42.726;23.268;2023-04-29T04:42:44;8.48;;;6.85;;
22646;SDS011;11490;42.726;23.268;2023-04-29T04:45:10;10.02;;;6.60;;
22646;SDS011;11490;42.726;23.268;2023-04-29T04:47:36;10.48;;;7.32;;
22646;SDS011;11490;42.726;23.268;2023-04-29T04:50:01;11.13;;;5.85;;
22646;SDS011;11490;42.726;23.268;2023-04-29T04:52:28;5.90;;;4.80;;
22646;SDS011;11490;42.726;23.268;2023-04-29T04:54:53;7.15;;;6.05;;
22646;SDS011;11490;42.726;23.268;2023-04-29T04:57:19;8.48;;;5.32;;
22646;SDS011;11490;42.726;23.268;2023-04-29T04:59:44;11.20;;;6.28;;
22646;SDS011;11490;42.726;23.268;2023-04-29T05:02:10;10.20;;;6.55;;
22646;SDS011;11490;42.726;23.268;2023-04-29T05:04:35;14.52;;;7.55;;
22646;SDS011;11490;42.726;23.268;2023-04-29T05:07:01;16.45;;;7.03;;
22646;SDS011;11490;42.726;23.268;2023-04-29T05:09:26;14.18;;;7.00;;
22646;SDS011;11490;42.726;23.268;2023-04-29T05:11:52;10.27;;;5.63;;
22646;SDS011;11490;42.726;23.268;2023-04-29T05:14:18;5.03;;;4.53;;
22646;SDS011;11490;42.726;23.268;2023-04-29T05:16:43;7.07;;;5.60;;
22646;SDS011;11490;42.726;23.268;2023-04-29T05:19:10;8.85;;;6.82;;
22646;SDS011;11490;42.726;23.268;2023-04-29T05:21:36;10.25;;;7.00;;
22646;SDS011;11490;42.726;23.268;2023-04-29T05:24:01;9.85;;;5.90;;
22646;SDS011;11490;42.726;23.268;2023-04-29T05:26:26;12.80;;;7.15;;
22646;SDS011;11490;42.726;23.268;2023-04-29T05:28:52;16.75;;;7.13;;
22646;SDS011;11490;42.726;23.268;2023-04-29T05:31:17;12.02;;;8.02;;
22646;SDS011;11490;42.726;23.268;2023-04-29T05:33:43;13.85;;;8.57;;
22646;SDS011;11490;42.726;23.268;2023-04-29T05:36:08;16.23;;;9.00;;
22646;SDS011;11490;42.726;23.268;2023-04-29T05:38:33;9.27;;;7.38;;
22646;SDS011;11490;42.726;23.268;2023-04-29T05:40:59;13.65;;;7.00;;
22646;SDS011;11490;42.726;23.268;2023-04-29T05:43:24;10.13;;;7.13;;
22646;SDS011;11490;42.726;23.268;2023-04-29T05:45:49;13.40;;;7.00;;
22646;SDS011;11490;42.726;23.268;2023-04-29T05:48:15;6.53;;;5.20;;
22646;SDS011;11490;42.726;23.268;2023-04-29T05:50:41;18.02;;;9.90;;
22646;SDS011;11490;42.726;23.268;2023-04-29T05:53:06;19.75;;;9.18;;
22646;SDS011;11490;42.726;23.268;2023-04-29T05:55:32;19.27;;;8.48;;
22646;SDS011;11490;42.726;23.268;2023-04-29T05:57:57;10.07;;;5.05;;
22646;SDS011;11490;42.726;23.268;2023-04-29T06:00:22;15.65;;;7.40;;
22646;SDS011;11490;42.726;23.268;2023-04-29T06:02:48;8.85;;;5.60;;
22646;SDS011;11490;42.726;23.268;2023-04-29T06:05:14;7.82;;;5.35;;
22646;SDS011;11490;42.726;23.268;2023-04-29T06:07:40;7.25;;;5.32;;
22646;SDS011;11490;42.726;23.268;2023-04-29T06:10:06;7.30;;;5.70;;
22646;SDS011;11490;42.726;23.268;2023-04-29T06:12:32;11.07;;;5.72;;
22646;SDS011;11490;42.726;23.268;2023-04-29T06:14:58;8.98;;;5.70;;
22646;SDS011;11490;42.726;23.268;2023-04-29T06:17:23;5.35;;;4.57;;
22646;SDS011;11490;42.726;23.268;2023-04-29T06:19:48;6.07;;;3.85;;
22646;SDS011;11490;42.726;23.268;2023-04-29T06:22:14;13.18;;;5.18;;
22646;SDS011;11490;42.726;23.268;2023-04-29T06:24:39;7.63;;;5.53;;
22646;SDS011;11490;42.726;23.268;2023-04-29T06:27:05;6.80;;;5.22;;
22646;SDS011;11490;42.726;23.268;2023-04-29T06:29:31;21.77;;;11.13;;
22646;SDS011;11490;42.726;23.268;2023-04-29T06:31:56;17.38;;;9.07;;
22646;SDS011;11490;42.726;23.268;2023-04-29T06:34:21;5.97;;;4.13;;
22646;SDS011;11490;42.726;23.268;2023-04-29T06:36:47;5.85;;;4.45;;
22646;SDS011;11490;42.726;23.268;2023-04-29T06:39:12;6.05;;;4.47;;
22646;SDS011;11490;42.726;23.268;2023-04-29T06:41:37;7.88;;;4.70;;
22646;SDS011;11490;42.726;23.268;2023-04-29T06:44:04;6.85;;;5.47;;
22646;SDS011;11490;42.726;23.268;2023-04-29T06:46:29;11.73;;;5.43;;
22646;SDS011;11490;42.726;23.268;2023-04-29T06:48:54;8.63;;;5.50;;
22646;SDS011;11490;42.726;23.268;2023-04-29T06:51:20;8.77;;;5.63;;
22646;SDS011;11490;42.726;23.268;2023-04-29T06:53:45;8.25;;;5.32;;
22646;SDS011;11490;42.726;23.268;2023-04-29T06:56:11;5.82;;;4.55;;
22646;SDS011;11490;42.726;23.268;2023-04-29T06:58:36;7.95;;;5.30;;
22646;SDS011;11490;42.726;23.268;2023-04-29T07:01:02;9.85;;;4.55;;
22646;SDS011;11490;42.726;23.268;2023-04-29T07:03:28;8.63;;;5.28;;
22646;SDS011;11490;42.726;23.268;2023-04-29T07:05:53;7.43;;;5.40;;
22646;SDS011;11490;42.726;23.268;2023-04-29T07:08:19;5.60;;;4.78;;
22646;SDS011;11490;42.726;23.268;2023-04-29T07:10:52;7.10;;;5.28;;
22646;SDS011;11490;42.726;23.268;2023-04-29T07:13:23;6.72;;;5.30;;
22646;SDS011;11490;42.726;23.268;2023-04-29T07:15:49;5.85;;;4.70;;
22646;SDS011;11490;42.726;23.268;2023-04-29T07:18:15;7.38;;;4.97;;
22646;SDS011;11490;42.726;23.268;2023-04-29T07:20:43;8.02;;;5.90;;
22646;SDS011;11490;42.726;23.268;2023-04-29T07:23:08;8.18;;;5.78;;
22646;SDS011;11490;42.726;23.268;2023-04-29T07:25:34;6.82;;;5.55;;
22646;SDS011;11490;42.726;23.268;2023-04-29T07:28:00;8.18;;;5.85;;
22646;SDS011;11490;42.726;23.268;2023-04-29T07:30:25;6.28;;;4.80;;
22646;SDS011;11490;42.726;23.268;2023-04-29T07:32:50;7.00;;;4.78;;
22646;SDS011;11490;42.726;23.268;2023-04-29T07:35:16;7.57;;;4.95;;
22646;SDS011;11490;42.726;23.268;2023-04-29T07:37:41;6.57;;;5.03;;
22646;SDS011;11490;42.726;23.268;2023-04-29T07:40:07;12.20;;;6.25;;
22646;SDS011;11490;42.726;23.268;2023-04-29T07:42:33;7.80;;;5.47;;
22646;SDS011;11490;42.726;23.268;2023-04-29T07:44:59;9.38;;;4.57;;
22646;SDS011;11490;42.726;23.268;2023-04-29T07:47:26;5.72;;;4.53;;
22646;SDS011;11490;42.726;23.268;2023-04-29T07:49:54;7.85;;;4.78;;
22646;SDS011;11490;42.726;23.268;2023-04-29T07:52:21;7.45;;;4.38;;
22646;SDS011;11490;42.726;23.268;2023-04-29T07:54:49;8.20;;;5.72;;
22646;SDS011;11490;42.726;23.268;2023-04-29T07:57:14;6.50;;;4.40;;
22646;SDS011;11490;42.726;23.268;2023-04-29T07:59:40;8.00;;;5.20;;
22646;SDS011;11490;42.726;23.268;2023-04-29T08:02:05;6.30;;;4.38;;
22646;SDS011;11490;42.726;23.268;2023-04-29T08:04:30;10.65;;;5.13;;
22646;SDS011;11490;42.726;23.268;2023-04-29T08:06:56;5.13;;;3.92;;
22646;SDS011;11490;42.726;23.268;2023-04-29T08:09:21;8.48;;;4.30;;
22646;SDS011;11490;42.726;23.268;2023-04-29T08:11:47;6.00;;;3.75;;
22646;SDS011;11490;42.726;23.268;2023-04-29T08:14:12;7.35;;;4.47;;
22646;SDS011;11490;42.726;23.268;2023-04-29T08:16:37;4.72;;;4.07;;
22646;SDS011;11490;42.726;23.268;2023-04-29T08:19:03;4.95;;;3.90;;
22646;SDS011;11490;42.726;23.268;2023-04-29T08:21:31;9.60;;;5.32;;
22646;SDS011;11490;42.726;23.268;2023-04-29T08:24:06;6.07;;;4.20;;
22646;SDS011;11490;42.726;23.268;2023-04-29T08:26:41;7.00;;;4.18;;
22646;SDS011;11490;42.726;23.268;2023-04-29T08:29:17;8.65;;;4.13;;
22646;SDS011;11490;42.726;23.268;2023-04-29T08:31:43;5.90;;;3.83;;
22646;SDS011;11490;42.726;23.268;2023-04-29T08:34:11;5.60;;;3.83;;
22646;SDS011;11490;42.726;23.268;2023-04-29T08:36:41;10.68;;;3.67;;
22646;SDS011;11490;42.726;23.268;2023-04-29T08:39:12;8.02;;;4.03;;
22646;SDS011;11490;42.726;23.268;2023-04-29T08:41:45;5.30;;;3.55;;
22646;SDS011;11490;42.726;23.268;2023-04-29T08:44:15;7.15;;;3.75;;
22646;SDS011;11490;42.726;23.268;2023-04-29T08:46:42;7.07;;;3.80;;
22646;SDS011;11490;42.726;23.268;2023-04-29T08:49:09;5.88;;;3.83;;
22646;SDS011;11490;42.726;23.268;2023-04-29T08:51:35;18.15;;;4.30;;
22646;SDS011;11490;42.726;23.268;2023-04-29T08:54:03;6.18;;;4.05;;
22646;SDS011;11490;42.726;23.268;2023-04-29T08:56:31;6.90;;;5.05;;
22646;SDS011;11490;42.726;23.268;2023-04-29T08:58:58;7.45;;;3.25;;
22646;SDS011;11490;42.726;23.268;2023-04-29T09:01:32;7.03;;;4.20;;
22646;SDS011;11490;42.726;23.268;2023-04-29T09:06:58;6.82;;;3.72;;
22646;SDS011;11490;42.726;23.268;2023-04-29T09:09:24;8.40;;;3.88;;
22646;SDS011;11490;42.726;23.268;2023-04-29T09:11:50;7.53;;;3.97;;
22646;SDS011;11490;42.726;23.268;2023-04-29T09:14:16;6.22;;;3.83;;
22646;SDS011;11490;42.726;23.268;2023-04-29T09:16:46;8.75;;;4.10;;
22646;SDS011;11490;42.726;23.268;2023-04-29T09:19:23;4.40;;;3.20;;
22646;SDS011;11490;42.726;23.268;2023-04-29T09:21:54;5.25;;;3.58;;
22646;SDS011;11490;42.726;23.268;2023-04-29T09:24:25;6.00;;;3.17;;
22646;SDS011;11490;42.726;23.268;2023-04-29T09:26:53;6.70;;;3.85;;
22646;SDS011;11490;42.726;23.268;2023-04-29T09:29:19;5.72;;;3.80;;
22646;SDS011;11490;42.726;23.268;2023-04-29T09:31:45;3.80;;;2.92;;
22646;SDS011;11490;42.726;23.268;2023-04-29T09:34:11;5.07;;;3.08;;
22646;SDS011;11490;42.726;23.268;2023-04-29T09:39:04;4.93;;;3.75;;
22646;SDS011;11490;42.726;23.268;2023-04-29T09:41:36;4.78;;;3.42;;
22646;SDS011;11490;42.726;23.268;2023-04-29T09:44:03;6.35;;;3.70;;
22646;SDS011;11490;42.726;23.268;2023-04-29T09:46:31;4.93;;;3.15;;
22646;SDS011;11490;42.726;23.268;2023-04-29T09:48:57;6.38;;;3.20;;
22646;SDS011;11490;42.726;23.268;2023-04-29T09:51:22;6.63;;;3.80;;
22646;SDS011;11490;42.726;23.268;2023-04-29T09:53:48;3.85;;;2.92;;
22646;SDS011;11490;42.726;23.268;2023-04-29T09:56:14;6.15;;;3.70;;
22646;SDS011;11490;42.726;23.268;2023-04-29T09:58:39;5.53;;;3.38;;
22646;SDS011;11490;42.726;23.268;2023-04-29T10:01:05;8.88;;;3.20;;
22646;SDS011;11490;42.726;23.268;2023-04-29T10:03:32;5.55;;;3.70;;
22646;SDS011;11490;42.726;23.268;2023-04-29T10:05:59;7.97;;;2.88;;
22646;SDS011;11490;42.726;23.268;2023-04-29T10:08:26;4.85;;;2.72;;
22646;SDS011;11490;42.726;23.268;2023-04-29T10:10:53;5.95;;;3.00;;
22646;SDS011;11490;42.726;23.268;2023-04-29T10:13:25;4.50;;;2.95;;
22646;SDS011;11490;42.726;23.268;2023-04-29T10:15:54;3.78;;;3.05;;
22646;SDS011;11490;42.726;23.268;2023-04-29T10:18:33;7.63;;;2.50;;
22646;SDS011;11490;42.726;23.268;2023-04-29T10:21:01;3.35;;;2.67;;
22646;SDS011;11490;42.726;23.268;2023-04-29T10:23:30;6.68;;;2.72;;
22646;SDS011;11490;42.726;23.268;2023-04-29T10:25:57;4.57;;;2.90;;
22646;SDS011;11490;42.726;23.268;2023-04-29T10:28:24;3.47;;;2.58;;
22646;SDS011;11490;42.726;23.268;2023-04-29T10:30:51;3.60;;;2.55;;
22646;SDS011;11490;42.726;23.268;2023-04-29T10:33:18;5.90;;;3.00;;
22646;SDS011;11490;42.726;23.268;2023-04-29T10:35:45;3.50;;;2.30;;
22646;SDS011;11490;42.726;23.268;2023-04-29T10:38:36;6.38;;;2.92;;
22646;SDS011;11490;42.726;23.268;2023-04-29T10:41:01;4.93;;;3.03;;
22646;SDS011;11490;42.726;23.268;2023-04-29T10:43:33;7.80;;;2.47;;
22646;SDS011;11490;42.726;23.268;2023-04-29T10:49:02;3.47;;;2.35;;
22646;SDS011;11490;42.726;23.268;2023-04-29T10:51:33;3.88;;;2.42;;
22646;SDS011;11490;42.726;23.268;2023-04-29T10:54:09;2.50;;;2.20;;
22646;SDS011;11490;42.726;23.268;2023-04-29T10:59:15;3.22;;;2.42;;
22646;SDS011;11490;42.726;23.268;2023-04-29T11:01:47;3.20;;;2.03;;
22646;SDS011;11490;42.726;23.268;2023-04-29T11:04:14;2.63;;;1.88;;
22646;SDS011;11490;42.726;23.268;2023-04-29T11:06:42;3.13;;;2.13;;
22646;SDS011;11490;42.726;23.268;2023-04-29T11:09:10;2.25;;;1.73;;
22646;SDS011;11490;42.726;23.268;2023-04-29T11:14:07;4.03;;;2.05;;
22646;SDS011;11490;42.726;23.268;2023-04-29T11:16:35;3.17;;;1.90;;
22646;SDS011;11490;42.726;23.268;2023-04-29T11:19:07;3.38;;;1.92;;
22646;SDS011;11490;42.726;23.268;2023-04-29T11:21:34;2.67;;;1.80;;
22646;SDS011;11490;42.726;23.268;2023-04-29T11:24:00;1.98;;;1.63;;
22646;SDS011;11490;42.726;23.268;2023-04-29T11:26:27;7.18;;;2.55;;
22646;SDS011;11490;42.726;23.268;2023-04-29T11:28:53;2.08;;;1.80;;
22646;SDS011;11490;42.726;23.268;2023-04-29T11:31:20;3.63;;;2.08;;
22646;SDS011;11490;42.726;23.268;2023-04-29T11:33:45;5.72;;;3.60;;
22646;SDS011;11490;42.726;23.268;2023-04-29T11:36:11;5.72;;;2.15;;
22646;SDS011;11490;42.726;23.268;2023-04-29T11:38:38;3.72;;;1.98;;
22646;SDS011;11490;42.726;23.268;2023-04-29T11:41:07;4.22;;;1.52;;
22646;SDS011;11490;42.726;23.268;2023-04-29T11:43:35;2.70;;;1.90;;
22646;SDS011;11490;42.726;23.268;2023-04-29T11:46:10;4.65;;;2.50;;
22646;SDS011;11490;42.726;23.268;2023-04-29T11:48:45;2.47;;;1.50;;
22646;SDS011;11490;42.726;23.268;2023-04-29T11:51:12;4.05;;;2.63;;
22646;SDS011;11490;42.726;23.268;2023-04-29T11:53:47;3.92;;;1.85;;
22646;SDS011;11490;42.726;23.268;2023-04-29T11:56:13;6.80;;;2.45;;
22646;SDS011;11490;42.726;23.268;2023-04-29T11:59:03;7.88;;;3.08;;
22646;SDS011;11490;42.726;23.268;2023-04-29T12:01:32;2.47;;;1.80;;
22646;SDS011;11490;42.726;23.268;2023-04-29T12:03:57;5.07;;;2.65;;
22646;SDS011;11490;42.726;23.268;2023-04-29T12:06:26;1.55;;;1.42;;
22646;SDS011;11490;42.726;23.268;2023-04-29T12:08:53;3.92;;;2.13;;
22646;SDS011;11490;42.726;23.268;2023-04-29T12:11:19;2.90;;;1.75;;
22646;SDS011;11490;42.726;23.268;2023-04-29T12:13:45;3.38;;;2.17;;
22646;SDS011;11490;42.726;23.268;2023-04-29T12:16:11;4.10;;;1.75;;
22646;SDS011;11490;42.726;23.268;2023-04-29T12:18:36;1.85;;;1.50;;
22646;SDS011;11490;42.726;23.268;2023-04-29T12:21:02;2.30;;;1.80;;
22646;SDS011;11490;42.726;23.268;2023-04-29T12:23:28;4.30;;;2.15;;
22646;SDS011;11490;42.726;23.268;2023-04-29T12:25:55;1.98;;;1.30;;
22646;SDS011;11490;42.726;23.268;2023-04-29T12:28:32;2.28;;;1.88;;
22646;SDS011;11490;42.726;23.268;2023-04-29T12:30:59;2.88;;;1.40;;
22646;SDS011;11490;42.726;23.268;2023-04-29T12:33:28;2.63;;;1.88;;
22646;SDS011;11490;42.726;23.268;2023-04-29T12:35:56;5.10;;;2.00;;
22646;SDS011;11490;42.726;23.268;2023-04-29T12:38:30;5.15;;;2.03;;
22646;SDS011;11490;42.726;23.268;2023-04-29T12:40:59;7.60;;;2.58;;
22646;SDS011;11490;42.726;23.268;2023-04-29T12:43:29;2.78;;;1.70;;
22646;SDS011;11490;42.726;23.268;2023-04-29T12:46:00;2.15;;;1.70;;
22646;SDS011;11490;42.726;23.268;2023-04-29T12:48:34;2.42;;;1.60;;
22646;SDS011;11490;42.726;23.268;2023-04-29T12:51:08;2.45;;;1.85;;
22646;SDS011;11490;42.726;23.268;2023-04-29T12:53:34;2.95;;;1.77;;
22646;SDS011;11490;42.726;23.268;2023-04-29T12:56:00;3.15;;;1.90;;
22646;SDS011;11490;42.726;23.268;2023-04-29T12:58:29;3.25;;;2.00;;
22646;SDS011;11490;42.726;23.268;2023-04-29T13:00:56;2.17;;;1.75;;
22646;SDS011;11490;42.726;23.268;2023-04-29T13:03:22;4.40;;;2.63;;
22646;SDS011;11490;42.726;23.268;2023-04-29T13:05:48;3.28;;;1.92;;
22646;SDS011;11490;42.726;23.268;2023-04-29T13:08:16;3.00;;;2.00;;
22646;SDS011;11490;42.726;23.268;2023-04-29T13:10:42;5.35;;;2.40;;
22646;SDS011;11490;42.726;23.268;2023-04-29T13:13:07;2.53;;;1.50;;
22646;SDS011;11490;42.726;23.268;2023-04-29T13:15:36;2.25;;;1.85;;
22646;SDS011;11490;42.726;23.268;2023-04-29T13:18:07;2.55;;;1.98;;
22646;SDS011;11490;42.726;23.268;2023-04-29T13:20:32;1.60;;;1.50;;
22646;SDS011;11490;42.726;23.268;2023-04-29T13:23:02;2.72;;;1.35;;
22646;SDS011;11490;42.726;23.268;2023-04-29T13:28:16;1.83;;;1.50;;
22646;SDS011;11490;42.726;23.268;2023-04-29T13:30:42;3.08;;;2.17;;
22646;SDS011;11490;42.726;23.268;2023-04-29T13:33:07;4.45;;;1.85;;
22646;SDS011;11490;42.726;23.268;2023-04-29T13:35:33;2.13;;;1.77;;
22646;SDS011;11490;42.726;23.268;2023-04-29T13:38:02;2.80;;;1.90;;
22646;SDS011;11490;42.726;23.268;2023-04-29T13:40:34;2.92;;;1.90;;
22646;SDS011;11490;42.726;23.268;2023-04-29T13:42:59;3.30;;;2.00;;
22646;SDS011;11490;42.726;23.268;2023-04-29T13:45:25;2.53;;;1.88;;
22646;SDS011;11490;42.726;23.268;2023-04-29T13:47:53;2.50;;;1.98;;
22646;SDS011;11490;42.726;23.268;2023-04-29T13:50:21;7.30;;;2.78;;
22646;SDS011;11490;42.726;23.268;2023-04-29T13:52:46;4.18;;;2.15;;
22646;SDS011;11490;42.726;23.268;2023-04-29T13:55:13;2.05;;;1.40;;
22646;SDS011;11490;42.726;23.268;2023-04-29T13:57:38;4.47;;;2.05;;
22646;SDS011;11490;42.726;23.268;2023-04-29T14:00:04;3.05;;;1.75;;
22646;SDS011;11490;42.726;23.268;2023-04-29T14:02:33;2.65;;;1.40;;
22646;SDS011;11490;42.726;23.268;2023-04-29T14:04:58;1.63;;;1.38;;
22646;SDS011;11490;42.726;23.268;2023-04-29T14:07:24;1.58;;;1.40;;
22646;SDS011;11490;42.726;23.268;2023-04-29T14:09:49;1.70;;;1.25;;
22646;SDS011;11490;42.726;23.268;2023-04-29T14:12:15;2.75;;;1.48;;
22646;SDS011;11490;42.726;23.268;2023-04-29T14:14:41;1.73;;;1.30;;
22646;SDS011;11490;42.726;23.268;2023-04-29T14:17:06;4.97;;;1.80;;
22646;SDS011;11490;42.726;23.268;2023-04-29T14:19:32;2.05;;;1.60;;
22646;SDS011;11490;42.726;23.268;2023-04-29T14:21:57;2.95;;;1.55;;
22646;SDS011;11490;42.726;23.268;2023-04-29T14:24:23;4.25;;;1.40;;
22646;SDS011;11490;42.726;23.268;2023-04-29T14:26:48;1.95;;;1.40;;
22646;SDS011;11490;42.726;23.268;2023-04-29T14:29:13;4.03;;;2.47;;
22646;SDS011;11490;42.726;23.268;2023-04-29T14:31:39;7.22;;;1.83;;
22646;SDS011;11490;42.726;23.268;2023-04-29T14:34:05;4.03;;;2.53;;
22646;SDS011;11490;42.726;23.268;2023-04-29T14:36:31;2.92;;;2.55;;
22646;SDS011;11490;42.726;23.268;2023-04-29T14:38:57;4.32;;;2.33;;
22646;SDS011;11490;42.726;23.268;2023-04-29T14:41:23;2.67;;;1.80;;
22646;SDS011;11490;42.726;23.268;2023-04-29T14:43:49;4.57;;;2.25;;
22646;SDS011;11490;42.726;23.268;2023-04-29T14:46:14;11.30;;;3.60;;
22646;SDS011;11490;42.726;23.268;2023-04-29T14:48:40;5.68;;;3.03;;
22646;SDS011;11490;42.726;23.268;2023-04-29T14:51:05;4.50;;;2.53;;
22646;SDS011;11490;42.726;23.268;2023-04-29T14:53:31;2.97;;;2.17;;
22646;SDS011;11490;42.726;23.268;2023-04-29T14:55:57;2.67;;;2.25;;
22646;SDS011;11490;42.726;23.268;2023-04-29T14:58:23;7.47;;;2.53;;